createdAt,value
2023-06-29T00:01:58.537Z,1.42
2023-06-29T00:04:27.334Z,1.40
2023-06-29T00:06:55.587Z,1.48
2023-06-29T00:09:25.078Z,1.48
2023-06-29T00:11:51.698Z,1.50
2023-06-29T00:14:18.215Z,1.35
2023-06-29T00:16:44.880Z,1.50
2023-06-29T00:19:13.055Z,1.30
2023-06-29T00:21:40.024Z,1.52
2023-06-29T00:24:07.312Z,1.67
2023-06-29T00:26:34.412Z,1.40
2023-06-29T00:29:01.207Z,1.60
2023-06-29T00:31:30.179Z,1.50
2023-06-29T00:33:56.700Z,1.92
2023-06-29T00:36:23.360Z,1.70
2023-06-29T00:38:50.100Z,1.75
2023-06-29T00:41:16.635Z,2.00
2023-06-29T00:43:44.203Z,1.88
2023-06-29T00:46:13.016Z,1.60
2023-06-29T00:48:40.120Z,2.00
2023-06-29T00:51:07.004Z,1.70
2023-06-29T00:53:33.711Z,1.70
2023-06-29T00:56:02.999Z,1.48
2023-06-29T00:58:30.416Z,1.60
2023-06-29T01:00:59.955Z,1.50
2023-06-29T01:03:29.252Z,1.60
2023-06-29T01:06:02.042Z,1.60
2023-06-29T01:08:34.290Z,1.73
2023-06-29T01:11:04.697Z,1.38
2023-06-29T01:13:32.423Z,1.50
2023-06-29T01:16:00.526Z,1.63
2023-06-29T01:18:31.799Z,1.77
2023-06-29T01:20:59.907Z,1.60
2023-06-29T01:23:29.159Z,1.80
2023-06-29T01:25:56.304Z,2.08
2023-06-29T01:28:23.211Z,1.85
2023-06-29T01:30:51.995Z,1.80
2023-06-29T01:33:24.441Z,1.80
2023-06-29T01:35:57.981Z,2.20
2023-06-29T01:38:31.067Z,1.70
2023-06-29T01:40:59.485Z,1.77
2023-06-29T01:43:29.304Z,2.10
2023-06-29T01:45:57.728Z,1.67
2023-06-29T01:48:24.801Z,1.85
2023-06-29T01:50:53.101Z,1.80
2023-06-29T01:53:19.663Z,1.52
2023-06-29T01:55:46.305Z,1.88
2023-06-29T01:58:13.124Z,1.58
2023-06-29T02:03:06.459Z,1.70
2023-06-29T02:05:33.127Z,1.80
2023-06-29T02:08:00.125Z,1.67
2023-06-29T02:10:26.935Z,1.60
2023-06-29T02:12:55.266Z,1.70
2023-06-29T02:15:21.915Z,1.77
2023-06-29T02:17:48.479Z,1.73
2023-06-29T02:20:15.254Z,1.60
2023-06-29T02:22:41.981Z,2.30
2023-06-29T02:25:12.567Z,1.90
2023-06-29T02:27:42.620Z,1.63
2023-06-29T02:30:09.677Z,1.80
2023-06-29T02:32:36.431Z,1.50
2023-06-29T02:35:03.019Z,1.70
2023-06-29T02:37:29.780Z,1.90
2023-06-29T02:39:56.324Z,1.58
2023-06-29T02:42:23.500Z,1.80
2023-06-29T02:44:50.019Z,1.58
2023-06-29T02:47:16.618Z,1.58
2023-06-29T02:49:45.436Z,1.80
2023-06-29T02:52:12.179Z,1.65
2023-06-29T02:54:38.677Z,1.70
2023-06-29T02:57:05.476Z,1.67
2023-06-29T02:59:37.091Z,1.67
2023-06-29T03:02:03.745Z,1.70
2023-06-29T03:04:30.314Z,1.55
2023-06-29T03:06:56.905Z,1.48
2023-06-29T03:09:23.505Z,1.60
2023-06-29T03:11:52.001Z,1.25
2023-06-29T03:14:18.698Z,1.55
2023-06-29T03:16:45.234Z,1.67
2023-06-29T03:19:12.133Z,1.80
2023-06-29T03:21:38.648Z,1.60
2023-06-29T03:24:07.379Z,1.67
2023-06-29T03:26:33.933Z,1.70
2023-06-29T03:29:00.474Z,1.65
2023-06-29T03:31:27.452Z,1.50
2023-06-29T03:33:54.053Z,1.60
2023-06-29T03:36:20.746Z,1.48
2023-06-29T03:38:47.377Z,1.60
2023-06-29T03:41:13.886Z,1.80
2023-06-29T03:43:40.702Z,1.63
2023-06-29T03:46:07.220Z,1.80
2023-06-29T03:48:33.916Z,1.67
2023-06-29T03:51:00.999Z,1.45
2023-06-29T03:53:27.565Z,1.50
2023-06-29T03:55:54.104Z,1.40
2023-06-29T03:58:20.773Z,1.63
2023-06-29T04:00:47.271Z,1.70
2023-06-29T04:03:13.916Z,1.70
2023-06-29T04:05:40.619Z,1.85
2023-06-29T04:08:08.045Z,1.63
2023-06-29T04:10:34.759Z,1.40
2023-06-29T04:13:01.718Z,1.80
2023-06-29T04:15:28.608Z,1.80
2023-06-29T04:17:55.160Z,1.70
2023-06-29T04:20:21.735Z,1.70
2023-06-29T04:22:50.200Z,1.50
2023-06-29T04:25:16.902Z,1.65
2023-06-29T04:27:43.900Z,1.60
2023-06-29T04:30:10.749Z,1.88
2023-06-29T04:32:37.375Z,1.58
2023-06-29T04:35:07.054Z,1.80
2023-06-29T04:37:42.288Z,1.75
2023-06-29T04:40:11.046Z,1.60
2023-06-29T04:42:47.686Z,1.63
2023-06-29T04:45:19.166Z,1.50
2023-06-29T04:47:47.246Z,1.92
2023-06-29T04:50:14.661Z,1.70
2023-06-29T04:52:41.369Z,1.77
2023-06-29T04:55:09.254Z,1.67
2023-06-29T04:57:36.163Z,1.77
2023-06-29T05:00:07.708Z,1.67
2023-06-29T05:02:34.436Z,1.70
2023-06-29T05:05:01.038Z,1.55
2023-06-29T05:07:27.660Z,1.80
2023-06-29T05:09:54.551Z,1.70
2023-06-29T05:12:21.032Z,1.55
2023-06-29T05:14:47.523Z,1.88
2023-06-29T05:17:16.365Z,1.70
2023-06-29T05:19:42.912Z,1.75
2023-06-29T05:22:15.305Z,1.70
2023-06-29T05:24:42.970Z,1.70
2023-06-29T05:27:09.936Z,1.40
2023-06-29T05:29:38.394Z,1.60
2023-06-29T05:32:05.864Z,1.50
2023-06-29T05:34:33.905Z,1.67
2023-06-29T05:37:00.416Z,1.88
2023-06-29T05:39:28.421Z,1.50
2023-06-29T05:41:55.144Z,1.83
2023-06-29T05:44:21.682Z,1.75
2023-06-29T05:46:48.279Z,1.80
2023-06-29T05:49:14.788Z,1.83
2023-06-29T05:51:43.407Z,1.42
2023-06-29T05:54:10.077Z,1.60
2023-06-29T05:56:36.584Z,1.70
2023-06-29T05:59:06.710Z,1.60
2023-06-29T06:01:33.350Z,2.00
2023-06-29T06:04:00.332Z,1.75
2023-06-29T06:06:27.065Z,1.50
2023-06-29T06:08:54.086Z,1.63
2023-06-29T06:11:20.854Z,1.60
2023-06-29T06:13:47.588Z,1.35
2023-06-29T06:16:14.231Z,1.33
2023-06-29T06:18:40.922Z,1.20
2023-06-29T06:21:07.532Z,1.50
2023-06-29T06:23:34.723Z,1.40
2023-06-29T06:26:02.160Z,1.80
2023-06-29T06:28:29.093Z,1.58
2023-06-29T06:30:55.660Z,1.70
2023-06-29T06:33:22.207Z,1.40
2023-06-29T06:35:50.838Z,1.50
2023-06-29T06:38:17.423Z,1.35
2023-06-29T06:40:44.472Z,1.60
2023-06-29T06:43:11.265Z,1.20
2023-06-29T06:45:37.773Z,1.30
2023-06-29T06:48:09.366Z,1.65
2023-06-29T06:50:38.615Z,1.30
2023-06-29T06:53:05.451Z,1.30
2023-06-29T06:55:31.983Z,1.65
2023-06-29T06:57:58.500Z,1.20
2023-06-29T07:00:27.932Z,1.10
2023-06-29T07:02:54.518Z,1.30
2023-06-29T07:05:21.103Z,1.50
2023-06-29T07:07:47.673Z,1.70
2023-06-29T07:10:14.344Z,1.40
2023-06-29T07:12:40.975Z,1.25
2023-06-29T07:15:07.982Z,1.30
2023-06-29T07:17:34.543Z,1.20
2023-06-29T07:25:02.164Z,1.30
2023-06-29T07:27:28.755Z,1.17
2023-06-29T07:29:55.367Z,1.05
2023-06-29T07:32:21.908Z,1.40
2023-06-29T07:34:48.520Z,1.20
2023-06-29T07:37:15.370Z,1.05
2023-06-29T07:39:41.930Z,1.20
2023-06-29T07:42:08.464Z,1.00
2023-06-29T07:44:38.297Z,0.90
2023-06-29T07:47:05.317Z,1.13
2023-06-29T07:49:31.980Z,1.13
2023-06-29T07:51:59.416Z,1.23
2023-06-29T07:54:25.917Z,1.20
2023-06-29T07:59:22.117Z,1.10
2023-06-29T08:01:51.400Z,1.30
2023-06-29T08:07:10.130Z,1.35
2023-06-29T08:09:38.179Z,1.00
2023-06-29T08:12:05.324Z,1.20
2023-06-29T08:14:33.960Z,1.38
2023-06-29T08:17:00.933Z,1.13
2023-06-29T08:19:31.318Z,1.30
2023-06-29T08:21:59.725Z,1.10
2023-06-29T08:24:26.231Z,1.17
2023-06-29T08:26:52.739Z,1.25
2023-06-29T08:29:21.574Z,0.98
2023-06-29T08:31:48.458Z,1.20
2023-06-29T08:34:15.239Z,1.00
2023-06-29T08:36:41.868Z,0.98
2023-06-29T08:39:09.748Z,1.30
2023-06-29T08:41:36.705Z,1.10
2023-06-29T08:44:05.599Z,1.10
2023-06-29T08:46:33.939Z,1.20
2023-06-29T08:49:01.685Z,1.30
2023-06-29T08:51:30.031Z,1.40
2023-06-29T08:53:57.518Z,1.05
2023-06-29T08:56:24.853Z,1.10
2023-06-29T08:58:52.565Z,1.00
2023-06-29T09:01:19.924Z,1.20
2023-06-29T09:03:47.529Z,1.40
2023-06-29T09:06:15.758Z,1.23
2023-06-29T09:08:42.712Z,1.00
2023-06-29T09:11:09.482Z,1.30
2023-06-29T09:13:36.024Z,1.10
2023-06-29T09:16:04.744Z,1.00
2023-06-29T09:18:33.673Z,0.95
2023-06-29T09:21:04.452Z,1.30
2023-06-29T09:23:33.205Z,0.90
2023-06-29T09:25:59.823Z,1.10
2023-06-29T09:28:27.378Z,1.00
2023-06-29T09:30:54.369Z,0.88
2023-06-29T09:33:26.060Z,0.90
2023-06-29T09:35:53.228Z,1.08
2023-06-29T09:38:21.179Z,0.73
2023-06-29T09:40:55.260Z,0.95
2023-06-29T09:43:26.399Z,0.98
2023-06-29T09:45:58.507Z,0.93
2023-06-29T09:50:55.840Z,0.90
2023-06-29T09:53:30.625Z,1.08
2023-06-29T09:55:59.794Z,0.90
2023-06-29T09:58:29.193Z,1.00
2023-06-29T10:00:59.861Z,0.85
2023-06-29T10:03:28.665Z,1.13
2023-06-29T10:06:18.179Z,0.80
2023-06-29T10:08:51.009Z,0.98
2023-06-29T10:11:18.409Z,1.00
2023-06-29T10:13:50.220Z,0.93
2023-06-29T10:16:20.498Z,0.95
2023-06-29T10:18:48.573Z,1.75
2023-06-29T10:21:15.982Z,1.02
2023-06-29T10:23:45.639Z,1.33
2023-06-29T10:26:13.688Z,1.38
2023-06-29T10:28:40.764Z,1.20
2023-06-29T10:31:07.368Z,1.20
2023-06-29T10:33:46.787Z,1.02
2023-06-29T10:36:15.114Z,1.08
2023-06-29T10:38:41.916Z,1.30
2023-06-29T10:41:08.567Z,1.10
2023-06-29T10:43:55.379Z,1.23
2023-06-29T10:46:48.098Z,1.20
2023-06-29T10:49:22.272Z,1.25
2023-06-29T10:52:05.505Z,1.50
2023-06-29T10:54:32.353Z,1.50
2023-06-29T10:57:00.744Z,1.30
2023-06-29T10:59:28.715Z,1.23
2023-06-29T11:01:55.697Z,1.67
2023-06-29T11:04:25.665Z,1.25
2023-06-29T11:06:52.633Z,1.42
2023-06-29T11:09:20.752Z,1.30
2023-06-29T11:11:49.675Z,1.30
2023-06-29T11:14:19.056Z,1.30
2023-06-29T11:16:45.726Z,1.33
2023-06-29T11:19:13.675Z,1.40
2023-06-29T11:24:30.619Z,1.70
2023-06-29T11:26:59.363Z,1.55
2023-06-29T11:29:32.356Z,1.40
2023-06-29T11:32:01.979Z,1.30
2023-06-29T11:34:28.601Z,1.40
2023-06-29T11:37:15.384Z,1.70
2023-06-29T11:39:42.461Z,1.58
2023-06-29T11:42:10.215Z,1.60
2023-06-29T11:44:36.937Z,1.88
2023-06-29T11:47:18.502Z,2.50
2023-06-29T11:49:51.805Z,1.80
2023-06-29T11:52:22.875Z,1.67
2023-06-29T11:54:51.866Z,2.20
2023-06-29T11:57:19.095Z,2.15
2023-06-29T11:59:46.617Z,2.58
2023-06-29T12:02:15.093Z,2.38
2023-06-29T12:04:58.064Z,2.20
2023-06-29T12:07:41.271Z,2.03
2023-06-29T12:10:14.038Z,2.50
2023-06-29T12:12:44.507Z,2.60
2023-06-29T12:15:21.037Z,2.80
2023-06-29T12:20:24.053Z,3.33
2023-06-29T12:22:54.585Z,2.65
2023-06-29T12:25:26.633Z,2.80
2023-06-29T12:27:53.228Z,2.75
2023-06-29T12:30:22.625Z,2.50
2023-06-29T12:32:50.656Z,2.67
2023-06-29T12:35:18.712Z,2.10
2023-06-29T12:37:47.634Z,2.30
2023-06-29T12:40:16.415Z,2.60
2023-06-29T12:42:43.219Z,2.33
2023-06-29T12:45:10.097Z,2.30
2023-06-29T12:47:37.323Z,2.10
2023-06-29T12:50:04.884Z,2.20
2023-06-29T12:52:31.704Z,2.60
2023-06-29T12:54:58.446Z,2.35
2023-06-29T12:57:30.004Z,2.20
2023-06-29T12:59:58.026Z,2.20
2023-06-29T13:02:27.764Z,2.50
2023-06-29T13:04:54.522Z,2.13
2023-06-29T13:07:23.709Z,2.40
2023-06-29T13:09:52.956Z,2.50
2023-06-29T13:12:20.716Z,2.70
2023-06-29T13:14:48.629Z,2.22
2023-06-29T13:17:15.447Z,2.20
2023-06-29T13:19:43.823Z,2.20
2023-06-29T13:22:10.493Z,2.47
2023-06-29T13:24:37.470Z,2.30
2023-06-29T13:27:04.938Z,2.85
2023-06-29T13:29:32.596Z,2.50
2023-06-29T13:31:59.189Z,2.70
2023-06-29T13:34:28.143Z,2.40
2023-06-29T13:36:55.384Z,2.63
2023-06-29T13:39:22.253Z,2.45
2023-06-29T13:41:50.751Z,2.58
2023-06-29T13:44:17.801Z,2.60
2023-06-29T13:46:47.882Z,2.10
2023-06-29T13:49:18.475Z,2.22
2023-06-29T13:51:49.260Z,2.90
2023-06-29T13:54:16.786Z,2.40
2023-06-29T13:56:45.045Z,2.83
2023-06-29T13:59:11.749Z,2.97
2023-06-29T14:01:40.763Z,2.67
2023-06-29T14:04:10.198Z,2.65
2023-06-29T14:06:42.355Z,3.03
2023-06-29T14:09:12.437Z,2.80
2023-06-29T14:11:39.349Z,2.67
2023-06-29T14:14:06.304Z,2.70
2023-06-29T14:16:33.295Z,2.83
2023-06-29T14:19:02.661Z,2.42
2023-06-29T14:21:29.579Z,2.72
2023-06-29T14:23:56.686Z,3.20
2023-06-29T14:26:23.866Z,3.35
2023-06-29T14:28:52.402Z,3.30
2023-06-29T14:31:19.258Z,3.60
2023-06-29T14:33:46.460Z,3.15
2023-06-29T14:36:13.503Z,3.05
2023-06-29T14:38:40.046Z,2.95
2023-06-29T14:41:06.634Z,3.50
2023-06-29T14:43:36.625Z,3.03
2023-06-29T14:46:03.243Z,3.10
2023-06-29T14:48:29.819Z,2.75
2023-06-29T14:50:56.605Z,3.10
2023-06-29T14:53:24.102Z,2.97
2023-06-29T14:55:51.204Z,3.20
2023-06-29T14:58:20.047Z,3.55
2023-06-29T15:00:46.612Z,3.33
2023-06-29T15:03:13.559Z,2.85
2023-06-29T15:05:40.379Z,3.30
2023-06-29T15:08:06.921Z,3.40
2023-06-29T15:10:33.674Z,3.40
2023-06-29T15:13:00.213Z,3.40
2023-06-29T15:15:26.831Z,3.45
2023-06-29T15:17:53.575Z,3.85
2023-06-29T15:20:22.374Z,3.58
2023-06-29T15:22:49.007Z,3.97
2023-06-29T15:25:15.688Z,4.00
2023-06-29T15:27:42.288Z,3.13
2023-06-29T15:30:09.404Z,4.30
2023-06-29T15:32:36.476Z,3.83
2023-06-29T15:35:04.365Z,4.43
2023-06-29T15:37:34.013Z,3.85
2023-06-29T15:40:00.955Z,4.40
2023-06-29T15:42:29.415Z,4.07
2023-06-29T15:44:59.994Z,3.78
2023-06-29T15:47:28.398Z,3.72
2023-06-29T15:49:55.156Z,3.90
2023-06-29T15:52:24.036Z,3.80
2023-06-29T15:54:50.572Z,3.65
2023-06-29T15:57:17.194Z,4.15
2023-06-29T15:59:47.518Z,3.53
2023-06-29T16:02:14.137Z,3.53
2023-06-29T16:04:40.710Z,4.22
2023-06-29T16:07:08.750Z,3.88
2023-06-29T16:09:38.435Z,4.00
2023-06-29T16:12:06.153Z,4.53
2023-06-29T16:14:33.319Z,4.50
2023-06-29T16:17:00.506Z,4.20
2023-06-29T16:19:27.555Z,4.82
2023-06-29T16:21:54.156Z,4.20
2023-06-29T16:24:20.691Z,4.97
2023-06-29T16:26:47.917Z,4.28
2023-06-29T16:29:14.536Z,4.20
2023-06-29T16:31:42.669Z,4.00
2023-06-29T16:34:11.521Z,4.38
2023-06-29T16:36:42.381Z,4.65
2023-06-29T16:39:09.011Z,4.22
2023-06-29T16:41:35.592Z,3.60
2023-06-29T16:44:02.189Z,3.97
2023-06-29T16:46:28.801Z,4.00
2023-06-29T16:49:00.116Z,4.18
2023-06-29T16:51:29.301Z,3.97
2023-06-29T16:53:56.580Z,3.85
2023-06-29T16:56:23.169Z,4.30
2023-06-29T16:58:50.252Z,4.10
2023-06-29T17:01:17.086Z,4.05
2023-06-29T17:03:45.340Z,3.88
2023-06-29T17:06:12.104Z,4.57
2023-06-29T17:08:41.136Z,4.15
2023-06-29T17:11:08.408Z,5.47
2023-06-29T17:13:35.400Z,4.78
2023-06-29T17:16:04.359Z,5.10
2023-06-29T17:18:30.930Z,4.80
2023-06-29T17:20:57.453Z,4.55
2023-06-29T17:23:24.009Z,4.50
2023-06-29T17:25:51.643Z,4.03
2023-06-29T17:28:21.313Z,4.38
2023-06-29T17:30:48.193Z,4.53
2023-06-29T17:33:15.568Z,4.13
2023-06-29T17:35:46.730Z,4.30
2023-06-29T17:38:13.507Z,4.63
2023-06-29T17:40:43.719Z,4.90
2023-06-29T17:43:10.284Z,4.20
2023-06-29T17:45:36.800Z,4.15
2023-06-29T17:48:03.660Z,4.55
2023-06-29T17:50:30.491Z,4.13
2023-06-29T17:52:57.044Z,3.95
2023-06-29T17:55:23.560Z,4.45
2023-06-29T17:57:50.127Z,3.90
2023-06-29T18:00:17.273Z,4.30
2023-06-29T18:02:44.120Z,4.00
2023-06-29T18:05:11.257Z,4.22
2023-06-29T18:07:38.120Z,4.50
2023-06-29T18:10:06.162Z,5.03
2023-06-29T18:12:36.886Z,4.60
2023-06-29T18:15:05.797Z,4.88
2023-06-29T18:17:35.647Z,5.00
2023-06-29T18:20:02.431Z,4.70
2023-06-29T18:22:31.372Z,4.97
2023-06-29T18:24:59.459Z,5.07
2023-06-29T18:27:27.825Z,5.13
2023-06-29T18:29:55.033Z,5.20
2023-06-29T18:32:21.566Z,5.32
2023-06-29T18:34:52.683Z,4.95
2023-06-29T18:37:19.234Z,4.35
2023-06-29T18:39:45.728Z,5.18
2023-06-29T18:42:12.323Z,5.40
2023-06-29T18:44:43.959Z,5.38
2023-06-29T18:47:14.916Z,5.68
2023-06-29T18:49:51.530Z,5.45
2023-06-29T18:52:20.183Z,5.47
2023-06-29T18:54:47.037Z,4.97
2023-06-29T18:57:16.024Z,5.65
2023-06-29T18:59:43.907Z,4.95
2023-06-29T19:02:10.872Z,5.03
2023-06-29T19:04:37.451Z,4.43
2023-06-29T19:07:04.526Z,4.43
2023-06-29T19:09:34.912Z,4.68
2023-06-29T19:12:02.272Z,5.05
2023-06-29T19:14:28.841Z,4.45
2023-06-29T19:16:58.529Z,5.07
2023-06-29T19:19:25.906Z,4.57
2023-06-29T19:21:53.547Z,4.82
2023-06-29T19:24:22.120Z,4.10
2023-06-29T19:26:48.876Z,4.53
2023-06-29T19:29:15.449Z,4.18
2023-06-29T19:31:44.708Z,4.28
2023-06-29T19:34:12.205Z,4.05
2023-06-29T19:36:39.262Z,4.10
2023-06-29T19:39:07.556Z,3.70
2023-06-29T19:41:34.466Z,3.90
2023-06-29T19:44:01.164Z,3.50
2023-06-29T19:46:27.853Z,3.42
2023-06-29T19:48:54.567Z,3.17
2023-06-29T19:51:21.335Z,3.55
2023-06-29T19:53:47.921Z,3.13
2023-06-29T19:56:14.574Z,3.55
2023-06-29T19:58:41.183Z,3.63
2023-06-29T20:01:07.680Z,3.40
2023-06-29T20:03:34.305Z,2.90
2023-06-29T20:06:01.046Z,3.33
2023-06-29T20:08:27.598Z,3.00
2023-06-29T20:10:57.647Z,3.33
2023-06-29T20:13:24.313Z,3.10
2023-06-29T20:15:51.064Z,2.63
2023-06-29T20:18:17.895Z,3.10
2023-06-29T20:20:44.449Z,3.20
2023-06-29T20:23:12.836Z,3.47
2023-06-29T20:25:39.691Z,3.42
2023-06-29T20:28:06.260Z,3.58
2023-06-29T20:30:32.869Z,3.80
2023-06-29T20:32:59.474Z,4.43
2023-06-29T20:35:28.156Z,4.07
2023-06-29T20:37:55.804Z,4.35
2023-06-29T20:40:22.713Z,4.45
2023-06-29T20:42:49.202Z,4.55
2023-06-29T20:45:20.255Z,4.80
2023-06-29T20:47:46.822Z,4.53
2023-06-29T20:50:13.475Z,4.88
2023-06-29T20:52:40.288Z,4.28
2023-06-29T20:55:09.129Z,4.68
2023-06-29T20:57:38.856Z,4.75
2023-06-29T21:00:06.907Z,4.97
2023-06-29T21:02:34.008Z,4.90
2023-06-29T21:05:00.835Z,4.47
2023-06-29T21:07:27.821Z,4.40
2023-06-29T21:09:54.505Z,4.85
2023-06-29T21:12:21.328Z,4.90
2023-06-29T21:14:48.109Z,4.40
2023-06-29T21:17:15.350Z,5.32
2023-06-29T21:19:42.688Z,4.95
2023-06-29T21:22:12.020Z,5.90
2023-06-29T21:24:40.529Z,5.35
2023-06-29T21:27:12.003Z,5.70
2023-06-29T21:29:42.369Z,5.93
2023-06-29T21:32:11.274Z,5.90
2023-06-29T21:34:38.695Z,5.97
2023-06-29T21:37:06.000Z,6.38
2023-06-29T21:39:34.231Z,6.28
2023-06-29T21:42:01.210Z,6.90
2023-06-29T21:44:27.787Z,7.45
2023-06-29T21:46:54.647Z,7.55
2023-06-29T21:49:22.984Z,8.23
2023-06-29T21:51:49.682Z,6.43
2023-06-29T21:54:16.258Z,7.30
2023-06-29T21:56:42.915Z,7.38
2023-06-29T21:59:09.768Z,7.70
2023-06-29T22:01:36.442Z,7.60
2023-06-29T22:04:03.312Z,7.65
2023-06-29T22:06:30.538Z,7.93
2023-06-29T22:08:57.635Z,8.35
2023-06-29T22:11:28.135Z,8.05
2023-06-29T22:13:55.270Z,8.13
2023-06-29T22:16:24.056Z,8.35
2023-06-29T22:18:51.962Z,8.60
2023-06-29T22:21:22.525Z,8.48
2023-06-29T22:23:54.356Z,8.52
2023-06-29T22:26:21.655Z,8.57
2023-06-29T22:28:48.605Z,8.57
2023-06-29T22:31:18.044Z,8.20
2023-06-29T22:33:47.076Z,8.85
2023-06-29T22:36:17.323Z,9.07
2023-06-29T22:38:44.080Z,8.65
2023-06-29T22:41:13.338Z,8.57
2023-06-29T22:43:40.653Z,9.20
2023-06-29T22:46:07.485Z,9.50
2023-06-29T22:48:34.109Z,9.30
2023-06-29T22:51:01.038Z,9.07
2023-06-29T22:53:27.787Z,9.70
2023-06-29T22:55:54.286Z,9.38
2023-06-29T22:58:25.311Z,10.48
2023-06-29T23:00:55.891Z,9.75
2023-06-29T23:03:23.318Z,9.85
2023-06-29T23:05:50.562Z,9.60
2023-06-29T23:08:19.350Z,9.32
2023-06-29T23:10:50.299Z,8.63
2023-06-29T23:13:17.322Z,8.93
2023-06-29T23:15:46.990Z,9.20
2023-06-29T23:18:14.623Z,8.65
2023-06-29T23:20:45.743Z,9.20
2023-06-29T23:23:16.358Z,8.85
2023-06-29T23:25:43.685Z,9.25
2023-06-29T23:28:10.504Z,8.75
2023-06-29T23:30:37.098Z,9.13
2023-06-29T23:33:03.858Z,9.15
2023-06-29T23:35:30.618Z,9.25
2023-06-29T23:37:57.232Z,9.95
2023-06-29T23:40:24.018Z,10.05
2023-06-29T23:42:51.034Z,9.25
2023-06-29T23:45:17.944Z,9.27
2023-06-29T23:47:44.556Z,9.07
2023-06-29T23:50:14.448Z,8.73
2023-06-29T23:52:42.287Z,8.73
2023-06-29T23:55:10.374Z,8.63
2023-06-29T23:57:37.086Z,9.60
